createdAt,value
2018-02-03T00:00:58.412Z,1.63
2018-02-03T00:03:26.716Z,2.27
2018-02-03T00:05:55.125Z,1.87
2018-02-03T00:08:23.375Z,1.77
2018-02-03T00:10:51.639Z,1.50
2018-02-03T00:13:19.910Z,1.77
2018-02-03T00:15:48.161Z,2.03
2018-02-03T00:18:16.429Z,2.23
2018-02-03T00:20:44.687Z,1.87
2018-02-03T00:23:12.922Z,1.80
2018-02-03T00:25:41.170Z,1.17
2018-02-03T00:28:09.421Z,1.57
2018-02-03T00:30:37.663Z,1.67
2018-02-03T00:33:05.906Z,1.47
2018-02-03T00:35:34.145Z,1.70
2018-02-03T00:38:02.395Z,1.70
2018-02-03T00:40:30.625Z,1.63
2018-02-03T00:42:58.896Z,1.63
2018-02-03T00:45:27.142Z,1.40
2018-02-03T00:47:55.377Z,1.53
2018-02-03T00:50:23.621Z,1.33
2018-02-03T00:52:51.881Z,1.43
2018-02-03T00:55:20.170Z,1.60
2018-02-03T00:57:48.588Z,1.40
2018-02-03T01:00:16.840Z,1.40
2018-02-03T01:02:45.088Z,2.03
2018-02-03T01:05:13.330Z,1.40
2018-02-03T01:07:41.587Z,1.77
2018-02-03T01:10:10.780Z,1.40
2018-02-03T01:12:39.049Z,1.47
2018-02-03T01:15:10.468Z,1.50
2018-02-03T01:17:38.721Z,1.60
2018-02-03T01:20:09.509Z,1.73
2018-02-03T01:22:37.569Z,2.10
2018-02-03T01:25:08.522Z,1.43
2018-02-03T01:27:36.766Z,2.00
2018-02-03T01:30:07.398Z,1.47
2018-02-03T01:32:35.649Z,2.10
2018-02-03T01:35:05.176Z,1.27
2018-02-03T01:37:33.424Z,2.10
2018-02-03T01:40:01.664Z,1.60
2018-02-03T01:42:29.605Z,1.73
2018-02-03T01:44:57.861Z,1.30
2018-02-03T01:47:25.465Z,1.73
2018-02-03T01:49:54.364Z,1.70
2018-02-03T01:52:22.625Z,2.33
2018-02-03T01:54:52.217Z,1.93
2018-02-03T01:57:20.474Z,2.07
2018-02-03T01:59:49.502Z,1.43
2018-02-03T02:02:17.423Z,1.30
2018-02-03T02:04:45.667Z,1.27
2018-02-03T02:07:13.921Z,2.07
2018-02-03T02:09:42.173Z,1.70
2018-02-03T02:12:10.070Z,1.70
2018-02-03T02:14:38.321Z,1.87
2018-02-03T02:17:06.800Z,1.70
2018-02-03T02:19:35.273Z,2.30
2018-02-03T02:22:03.517Z,1.60
2018-02-03T02:24:31.760Z,1.57
2018-02-03T02:27:00.014Z,1.80
2018-02-03T02:29:28.077Z,2.20
2018-02-03T02:31:56.327Z,1.30
2018-02-03T02:34:24.583Z,1.80
2018-02-03T02:36:52.820Z,1.87
2018-02-03T02:39:21.072Z,1.83
2018-02-03T02:41:48.987Z,1.43
2018-02-03T02:44:16.549Z,1.30
2018-02-03T02:46:44.810Z,1.20
2018-02-03T02:49:13.541Z,1.50
2018-02-03T02:51:42.092Z,1.20
2018-02-03T02:54:10.334Z,1.83
2018-02-03T02:56:38.574Z,2.40
2018-02-03T02:59:06.826Z,1.90
2018-02-03T03:01:35.083Z,1.83
2018-02-03T03:04:03.318Z,1.60
2018-02-03T03:06:31.930Z,1.50
2018-02-03T03:09:00.229Z,1.50
2018-02-03T03:11:28.484Z,1.20
2018-02-03T03:13:56.737Z,1.93
2018-02-03T03:16:25.001Z,1.70
2018-02-03T03:18:53.236Z,1.73
2018-02-03T03:21:21.564Z,1.50
2018-02-03T03:23:49.814Z,1.30
2018-02-03T03:26:18.078Z,1.80
2018-02-03T03:28:46.328Z,1.33
2018-02-03T03:31:14.582Z,1.60
2018-02-03T03:33:42.833Z,1.93
2018-02-03T03:36:11.129Z,1.37
2018-02-03T03:38:40.126Z,1.70
2018-02-03T03:41:08.364Z,1.33
2018-02-03T03:43:36.601Z,1.20
2018-02-03T03:46:05.328Z,1.80
2018-02-03T03:48:33.569Z,1.43
2018-02-03T03:51:01.804Z,1.80
2018-02-03T03:53:30.048Z,1.90
2018-02-03T03:55:59.009Z,1.40
2018-02-03T03:58:28.277Z,1.60
2018-02-03T04:00:56.530Z,1.70
2018-02-03T04:03:24.609Z,1.10
2018-02-03T04:05:52.852Z,1.50
2018-02-03T04:08:20.911Z,1.37
2018-02-03T04:10:48.826Z,1.33
2018-02-03T04:13:17.065Z,1.50
2018-02-03T04:15:47.201Z,1.27
2018-02-03T04:18:15.429Z,1.40
2018-02-03T04:20:43.675Z,1.43
2018-02-03T04:23:11.916Z,1.40
2018-02-03T04:25:40.158Z,1.40
2018-02-03T04:28:08.406Z,1.50
2018-02-03T04:30:36.473Z,1.10
2018-02-03T04:33:04.733Z,0.90
2018-02-03T04:35:32.974Z,1.30
2018-02-03T04:38:01.221Z,1.43
2018-02-03T04:40:29.460Z,1.10
2018-02-03T04:42:57.705Z,1.23
2018-02-03T04:45:25.945Z,0.97
2018-02-03T04:47:54.236Z,1.37
2018-02-03T04:50:22.291Z,1.00
2018-02-03T04:52:50.530Z,1.10
2018-02-03T04:55:20.573Z,1.43
2018-02-03T04:57:48.841Z,1.33
2018-02-03T05:00:17.087Z,1.90
2018-02-03T05:02:45.346Z,0.80
2018-02-03T05:05:13.576Z,0.97
2018-02-03T05:07:41.852Z,1.13
2018-02-03T05:10:11.588Z,0.90
2018-02-03T05:12:39.849Z,1.33
2018-02-03T05:15:08.824Z,1.20
2018-02-03T05:17:37.060Z,1.17
2018-02-03T05:20:07.604Z,1.00
2018-02-03T05:22:35.845Z,1.10
2018-02-03T05:25:04.084Z,1.17
2018-02-03T05:27:32.452Z,1.17
2018-02-03T05:30:00.034Z,1.20
2018-02-03T05:32:28.441Z,0.90
2018-02-03T05:34:56.497Z,1.10
2018-02-03T05:37:25.578Z,1.20
2018-02-03T05:39:53.638Z,1.30
2018-02-03T05:42:22.486Z,0.83
2018-02-03T05:44:52.005Z,1.27
2018-02-03T05:47:20.062Z,1.47
2018-02-03T05:49:48.178Z,1.30
2018-02-03T05:52:16.420Z,1.20
2018-02-03T05:54:44.661Z,1.83
2018-02-03T05:57:12.900Z,1.50
2018-02-03T05:59:41.148Z,1.63
2018-02-03T06:02:09.386Z,1.40
2018-02-03T06:04:37.634Z,1.50
2018-02-03T06:07:05.873Z,1.30
2018-02-03T06:09:33.941Z,1.60
2018-02-03T06:12:02.194Z,1.33
2018-02-03T06:14:30.433Z,2.33
2018-02-03T06:16:59.528Z,1.80
2018-02-03T06:19:27.781Z,1.47
2018-02-03T06:21:56.036Z,2.03
2018-02-03T06:24:24.280Z,1.63
2018-02-03T06:26:52.193Z,1.90
2018-02-03T06:29:20.458Z,2.30
2018-02-03T06:31:48.721Z,2.10
2018-02-03T06:34:16.959Z,2.33
2018-02-03T06:36:45.208Z,1.60
2018-02-03T06:39:13.277Z,2.03
2018-02-03T06:41:41.524Z,2.77
2018-02-03T06:44:09.939Z,2.57
2018-02-03T06:46:37.985Z,2.83
2018-02-03T06:49:06.233Z,2.93
2018-02-03T06:51:35.209Z,3.33
2018-02-03T06:54:04.110Z,2.37
2018-02-03T06:56:32.347Z,2.60
2018-02-03T06:59:00.588Z,2.57
2018-02-03T07:01:28.841Z,3.23
2018-02-03T07:03:57.870Z,2.43
2018-02-03T07:06:26.148Z,2.70
2018-02-03T07:08:54.397Z,2.83
2018-02-03T07:11:21.977Z,2.57
2018-02-03T07:13:50.229Z,2.40
2018-02-03T07:16:18.475Z,2.70
2018-02-03T07:18:46.406Z,3.67
2018-02-03T07:21:14.664Z,3.37
2018-02-03T07:23:43.133Z,3.17
2018-02-03T07:26:11.545Z,2.37
2018-02-03T07:28:39.610Z,3.03
2018-02-03T07:31:07.661Z,2.97
2018-02-03T07:33:36.140Z,2.90
2018-02-03T07:36:04.374Z,3.30
2018-02-03T07:38:32.613Z,4.50
2018-02-03T07:41:00.877Z,3.40
2018-02-03T07:43:29.129Z,3.40
2018-02-03T07:45:57.404Z,2.53
2018-02-03T07:48:25.682Z,2.70
2018-02-03T07:50:53.928Z,3.13
2018-02-03T07:53:22.184Z,3.43
2018-02-03T07:55:50.429Z,3.70
2018-02-03T07:58:18.686Z,3.30
2018-02-03T08:00:46.943Z,6.90
2018-02-03T08:03:14.996Z,4.53
2018-02-03T08:05:43.059Z,3.43
2018-02-03T08:08:11.297Z,3.73
2018-02-03T08:10:39.545Z,3.90
2018-02-03T08:13:08.209Z,3.30
2018-02-03T08:15:36.574Z,7.57
2018-02-03T08:18:05.425Z,4.30
2018-02-03T08:20:33.786Z,3.67
2018-02-03T08:23:01.845Z,3.20
2018-02-03T08:25:30.090Z,3.37
2018-02-03T08:27:58.366Z,5.90
2018-02-03T08:30:26.624Z,4.40
2018-02-03T08:32:54.869Z,3.60
2018-02-03T08:35:23.218Z,4.00
2018-02-03T08:37:50.859Z,3.73
2018-02-03T08:40:18.557Z,3.93
2018-02-03T08:42:46.637Z,3.40
2018-02-03T08:45:14.970Z,3.67
2018-02-03T08:47:42.551Z,4.20
2018-02-03T08:50:15.345Z,4.37
2018-02-03T08:52:44.348Z,4.30
2018-02-03T08:55:16.054Z,3.93
2018-02-03T08:57:44.294Z,4.60
2018-02-03T09:00:12.565Z,10.43
2018-02-03T09:02:41.039Z,5.33
2018-02-03T09:05:09.288Z,5.80
2018-02-03T09:07:37.937Z,5.67
2018-02-03T09:10:07.137Z,5.50
2018-02-03T09:12:35.105Z,4.77
2018-02-03T09:15:04.229Z,5.20
2018-02-03T09:17:32.492Z,4.60
2018-02-03T09:20:00.765Z,4.43
2018-02-03T09:22:29.017Z,3.97
2018-02-03T09:24:57.265Z,4.93
2018-02-03T09:27:25.861Z,4.87
2018-02-03T09:29:54.120Z,4.90
2018-02-03T09:32:22.363Z,4.17
2018-02-03T09:34:50.435Z,4.53
2018-02-03T09:37:18.693Z,6.80
2018-02-03T09:39:46.953Z,8.80
2018-02-03T09:42:15.228Z,6.00
2018-02-03T09:44:43.481Z,5.10
2018-02-03T09:47:11.752Z,5.97
2018-02-03T09:49:40.770Z,5.50
2018-02-03T09:52:09.023Z,6.43
2018-02-03T09:54:37.156Z,4.27
2018-02-03T09:57:05.378Z,6.50
2018-02-03T09:59:33.649Z,4.63
2018-02-03T10:02:01.889Z,5.10
2018-02-03T10:04:30.146Z,5.77
2018-02-03T10:06:58.400Z,5.97
2018-02-03T10:09:27.377Z,9.23
2018-02-03T10:11:55.621Z,5.70
2018-02-03T10:14:23.962Z,5.87
2018-02-03T10:16:51.885Z,5.80
2018-02-03T10:19:20.233Z,7.33
2018-02-03T10:21:48.478Z,18.83
2018-02-03T10:24:16.925Z,5.97
2018-02-03T10:26:45.198Z,6.27
2018-02-03T10:29:13.447Z,6.93
2018-02-03T10:31:41.690Z,6.60
2018-02-03T10:34:09.257Z,6.47
2018-02-03T10:36:37.501Z,6.63
2018-02-03T10:39:05.076Z,4.90
2018-02-03T10:41:33.038Z,5.83
2018-02-03T10:44:01.301Z,5.07
2018-02-03T10:46:29.553Z,5.03
2018-02-03T10:48:57.848Z,6.67
2018-02-03T10:51:26.184Z,6.90
2018-02-03T10:53:54.428Z,8.10
2018-02-03T10:56:22.350Z,6.20
2018-02-03T10:58:50.593Z,4.20
2018-02-03T11:01:18.649Z,5.07
2018-02-03T11:03:46.913Z,6.73
2018-02-03T11:06:15.170Z,6.27
2018-02-03T11:08:43.409Z,5.47
2018-02-03T11:11:11.986Z,5.60
2018-02-03T11:13:40.470Z,6.10
2018-02-03T11:16:08.743Z,5.47
2018-02-03T11:18:38.033Z,5.10
2018-02-03T11:21:06.300Z,6.43
2018-02-03T11:23:34.556Z,5.63
2018-02-03T11:26:02.807Z,5.63
2018-02-03T11:28:31.305Z,5.70
2018-02-03T11:30:59.565Z,4.87
2018-02-03T11:33:28.101Z,5.23
2018-02-03T11:35:56.365Z,5.50
2018-02-03T11:38:24.449Z,4.90
2018-02-03T11:40:52.720Z,5.93
2018-02-03T11:43:20.961Z,6.47
2018-02-03T11:45:49.221Z,5.70
2018-02-03T11:48:17.510Z,5.63
2018-02-03T11:50:45.931Z,6.13
2018-02-03T11:53:13.498Z,5.37
2018-02-03T11:55:41.733Z,5.67
2018-02-03T11:58:09.997Z,6.07
2018-02-03T12:00:38.497Z,5.63
2018-02-03T12:03:06.733Z,5.63
2018-02-03T12:05:35.017Z,6.07
2018-02-03T12:08:03.262Z,5.80
2018-02-03T12:10:31.549Z,6.80
2018-02-03T12:12:59.789Z,6.70
2018-02-03T12:15:28.054Z,5.30
2018-02-03T12:17:56.309Z,5.50
2018-02-03T12:20:24.568Z,5.90
2018-02-03T12:22:53.379Z,5.83
2018-02-03T12:25:21.616Z,6.03
2018-02-03T12:27:52.714Z,5.43
2018-02-03T12:30:20.781Z,5.43
2018-02-03T12:32:48.374Z,6.63
2018-02-03T12:35:17.112Z,6.40
2018-02-03T12:37:45.382Z,6.60
2018-02-03T12:40:13.657Z,7.83
2018-02-03T12:42:41.900Z,5.73
2018-02-03T12:45:10.968Z,5.77
2018-02-03T12:47:39.214Z,6.23
2018-02-03T12:50:07.951Z,6.37
2018-02-03T12:52:36.201Z,7.57
2018-02-03T12:55:04.363Z,7.40
2018-02-03T12:57:33.099Z,7.03
2018-02-03T13:00:01.345Z,6.80
2018-02-03T13:02:29.592Z,7.43
2018-02-03T13:04:57.838Z,6.60
2018-02-03T13:07:26.800Z,7.17
2018-02-03T13:09:55.057Z,6.90
2018-02-03T13:12:23.300Z,5.77
2018-02-03T13:14:51.567Z,6.20
2018-02-03T13:17:19.810Z,7.87
2018-02-03T13:19:48.110Z,8.10
2018-02-03T13:22:16.502Z,8.33
2018-02-03T13:24:44.748Z,6.60
2018-02-03T13:27:13.006Z,7.80
2018-02-03T13:29:41.473Z,7.80
2018-02-03T13:32:09.730Z,6.93
2018-02-03T13:34:37.663Z,7.80
2018-02-03T13:37:05.930Z,7.03
2018-02-03T13:39:35.338Z,6.47
2018-02-03T13:42:03.627Z,7.40
2018-02-03T13:44:31.890Z,7.33
2018-02-03T13:47:00.149Z,7.67
2018-02-03T13:49:28.411Z,9.17
2018-02-03T13:51:56.398Z,7.30
2018-02-03T13:54:24.649Z,7.93
2018-02-03T13:56:52.896Z,7.50
2018-02-03T13:59:21.285Z,6.90
2018-02-03T14:01:49.549Z,7.30
2018-02-03T14:04:18.330Z,7.57
2018-02-03T14:06:46.582Z,7.00
2018-02-03T14:09:14.816Z,7.00
2018-02-03T14:11:43.658Z,7.80
2018-02-03T14:14:12.066Z,7.30
2018-02-03T14:16:40.394Z,7.37
2018-02-03T14:19:09.249Z,9.03
2018-02-03T14:21:37.500Z,7.10
2018-02-03T14:24:11.605Z,8.10
2018-02-03T14:26:39.854Z,8.83
2018-02-03T14:29:08.112Z,9.30
2018-02-03T14:31:36.391Z,8.83
2018-02-03T14:34:04.646Z,9.13
2018-02-03T14:36:32.952Z,8.83
2018-02-03T14:39:01.210Z,8.30
2018-02-03T14:41:29.482Z,8.77
2018-02-03T14:43:58.178Z,8.90
2018-02-03T14:46:26.464Z,9.07
2018-02-03T14:48:54.877Z,7.73
2018-02-03T14:51:23.145Z,8.67
2018-02-03T14:53:51.413Z,8.80
2018-02-03T14:56:19.673Z,8.67
2018-02-03T14:58:48.393Z,8.47
2018-02-03T15:01:16.993Z,8.27
2018-02-03T15:03:45.240Z,8.20
2018-02-03T15:06:13.522Z,7.73
2018-02-03T15:08:41.973Z,10.37
2018-02-03T15:11:10.227Z,10.37
2018-02-03T15:13:38.479Z,9.43
2018-02-03T15:16:06.737Z,9.80
2018-02-03T15:18:35.682Z,9.47
2018-02-03T15:21:03.949Z,9.13
2018-02-03T15:23:31.526Z,8.60
2018-02-03T15:25:59.791Z,9.20
2018-02-03T15:28:28.069Z,10.40
2018-02-03T15:30:56.340Z,8.57
2018-02-03T15:33:24.625Z,10.77
2018-02-03T15:35:52.893Z,10.57
2018-02-03T15:38:21.152Z,11.07
2018-02-03T15:40:49.414Z,10.70
2018-02-03T15:43:17.704Z,11.10
2018-02-03T15:45:46.000Z,10.60
2018-02-03T15:48:13.933Z,10.30
2018-02-03T15:50:42.205Z,11.90
2018-02-03T15:53:10.456Z,11.13
2018-02-03T15:55:38.730Z,10.50
2018-02-03T15:58:06.977Z,11.37
2018-02-03T16:00:35.373Z,12.00
2018-02-03T16:03:03.628Z,10.57
2018-02-03T16:05:31.906Z,12.73
2018-02-03T16:08:00.176Z,13.43
2018-02-03T16:10:28.467Z,11.63
2018-02-03T16:12:56.739Z,13.70
2018-02-03T16:15:25.126Z,12.77
2018-02-03T16:17:53.394Z,12.73
2018-02-03T16:20:21.657Z,12.40
2018-02-03T16:22:49.913Z,12.30
2018-02-03T16:25:18.174Z,15.07
2018-02-03T16:27:46.417Z,12.53
2018-02-03T16:30:14.674Z,12.10
2018-02-03T16:32:42.932Z,14.30
2018-02-03T16:35:16.004Z,17.30
2018-02-03T16:37:44.250Z,13.30
2018-02-03T16:40:12.518Z,14.40
2018-02-03T16:42:40.769Z,13.73
2018-02-03T16:45:13.925Z,13.90
2018-02-03T16:47:42.189Z,14.60
2018-02-03T16:50:15.577Z,13.97
2018-02-03T16:52:43.836Z,15.10
2018-02-03T16:55:11.757Z,14.70
2018-02-03T16:57:39.660Z,13.63
2018-02-03T17:00:13.106Z,19.53
2018-02-03T17:02:41.361Z,13.97
2018-02-03T17:05:11.857Z,16.10
2018-02-03T17:07:39.594Z,16.83
2018-02-03T17:10:09.870Z,15.50
2018-02-03T17:12:38.122Z,14.73
2018-02-03T17:15:09.397Z,16.77
2018-02-03T17:17:37.297Z,15.97
2018-02-03T17:20:06.189Z,17.10
2018-02-03T17:22:36.750Z,16.20
2018-02-03T17:25:05.363Z,15.23
2018-02-03T17:27:33.620Z,15.80
2018-02-03T17:30:02.350Z,16.60
2018-02-03T17:32:30.618Z,15.50
2018-02-03T17:34:58.930Z,15.40
2018-02-03T17:37:32.733Z,15.77
2018-02-03T17:40:00.994Z,16.30
2018-02-03T17:42:29.624Z,15.57
2018-02-03T17:45:03.506Z,16.40
2018-02-03T17:47:32.957Z,16.17
2018-02-03T17:50:01.273Z,16.03
2018-02-03T17:52:29.518Z,17.20
2018-02-03T17:54:57.633Z,16.77
2018-02-03T17:57:31.362Z,17.10
2018-02-03T17:59:59.627Z,15.97
2018-02-03T18:02:27.702Z,17.80
2018-02-03T18:04:56.007Z,15.97
2018-02-03T18:07:24.258Z,16.13
2018-02-03T18:09:52.566Z,16.47
2018-02-03T18:12:21.018Z,15.90
2018-02-03T18:14:49.774Z,16.57
2018-02-03T18:17:18.064Z,14.83
2018-02-03T18:19:46.317Z,17.87
2018-02-03T18:22:14.569Z,17.23
2018-02-03T18:24:42.823Z,17.67
2018-02-03T18:27:11.131Z,17.07
2018-02-03T18:29:39.431Z,17.13
2018-02-03T18:32:07.723Z,16.60
2018-02-03T18:34:35.978Z,16.00
2018-02-03T18:37:04.285Z,17.27
2018-02-03T18:39:32.560Z,16.20
2018-02-03T18:42:00.886Z,15.70
2018-02-03T18:44:29.157Z,16.30
2018-02-03T18:46:57.403Z,16.70
2018-02-03T18:49:25.317Z,16.13
2018-02-03T18:51:53.594Z,14.03
2018-02-03T18:54:21.866Z,16.97
2018-02-03T18:56:50.129Z,16.10
2018-02-03T18:59:18.397Z,15.03
2018-02-03T19:01:46.645Z,15.17
2018-02-03T19:04:14.909Z,15.87
2018-02-03T19:06:43.161Z,16.63
2018-02-03T19:09:11.460Z,14.03
2018-02-03T19:11:39.716Z,15.43
2018-02-03T19:14:07.998Z,15.47
2018-02-03T19:16:36.276Z,15.53
2018-02-03T19:19:03.852Z,13.63
2018-02-03T19:21:32.137Z,16.00
2018-02-03T19:24:00.770Z,15.30
2018-02-03T19:26:29.058Z,15.30
2018-02-03T19:28:57.347Z,17.80
2018-02-03T19:31:25.648Z,15.17
2018-02-03T19:33:53.923Z,15.17
2018-02-03T19:36:22.365Z,14.97
2018-02-03T19:38:50.647Z,14.17
2018-02-03T19:41:18.929Z,13.87
2018-02-03T19:43:47.219Z,13.93
2018-02-03T19:46:15.654Z,14.83
2018-02-03T19:48:43.922Z,14.27
2018-02-03T19:51:12.201Z,14.73
2018-02-03T19:53:40.478Z,15.03
2018-02-03T19:56:08.730Z,12.10
2018-02-03T19:58:36.462Z,14.80
2018-02-03T20:01:04.026Z,13.77
2018-02-03T20:03:32.277Z,13.13
2018-02-03T20:06:00.528Z,15.70
2018-02-03T20:08:28.782Z,14.33
2018-02-03T20:10:57.041Z,16.60
2018-02-03T20:13:25.333Z,16.03
2018-02-03T20:15:53.673Z,18.10
2018-02-03T20:18:22.292Z,15.30
2018-02-03T20:20:50.841Z,17.33
2018-02-03T20:23:18.418Z,14.33
2018-02-03T20:25:46.922Z,13.90
2018-02-03T20:28:16.010Z,14.57
2018-02-03T20:30:44.277Z,13.97
2018-02-03T20:33:12.537Z,16.47
2018-02-03T20:35:41.673Z,15.90
2018-02-03T20:38:09.927Z,12.63
2018-02-03T20:40:38.971Z,12.63
2018-02-03T20:43:07.257Z,12.70
2018-02-03T20:45:35.536Z,14.33
2018-02-03T20:48:04.000Z,13.77
2018-02-03T20:50:32.065Z,13.53
2018-02-03T20:53:00.136Z,14.40
2018-02-03T20:55:28.394Z,15.03
2018-02-03T20:57:56.647Z,13.53
2018-02-03T21:00:24.897Z,14.07
2018-02-03T21:02:53.155Z,13.60
2018-02-03T21:05:21.432Z,13.83
2018-02-03T21:07:49.698Z,12.73
2018-02-03T21:10:17.971Z,12.70
2018-02-03T21:12:46.246Z,12.73
2018-02-03T21:15:14.497Z,13.87
2018-02-03T21:17:42.761Z,13.77
2018-02-03T21:20:13.646Z,14.73
2018-02-03T21:22:41.917Z,15.30
2018-02-03T21:25:10.185Z,16.47
2018-02-03T21:27:38.432Z,15.60
2018-02-03T21:30:10.047Z,15.43
2018-02-03T21:32:38.337Z,15.10
2018-02-03T21:35:10.182Z,16.40
2018-02-03T21:37:38.429Z,17.17
2018-02-03T21:40:10.541Z,16.60
2018-02-03T21:42:38.800Z,16.47
2018-02-03T21:45:10.039Z,16.07
2018-02-03T21:47:38.105Z,16.27
2018-02-03T21:50:11.936Z,15.63
2018-02-03T21:52:40.194Z,14.60
2018-02-03T21:55:11.713Z,16.60
2018-02-03T21:57:39.976Z,15.90
2018-02-03T22:00:10.569Z,15.20
2018-02-03T22:02:38.836Z,15.10
2018-02-03T22:05:10.262Z,14.40
2018-02-03T22:07:38.526Z,15.40
2018-02-03T22:10:09.274Z,16.30
2018-02-03T22:12:37.075Z,15.47
2018-02-03T22:15:08.694Z,13.83
2018-02-03T22:17:36.941Z,14.47
2018-02-03T22:20:10.583Z,14.13
2018-02-03T22:22:38.869Z,13.90
2018-02-03T22:25:15.897Z,15.00
2018-02-03T22:27:44.154Z,15.00
2018-02-03T22:30:12.406Z,14.90
2018-02-03T22:32:40.661Z,14.37
2018-02-03T22:35:13.674Z,15.20
2018-02-03T22:37:41.935Z,14.53
2018-02-03T22:40:10.648Z,14.53
2018-02-03T22:42:38.920Z,15.27
2018-02-03T22:45:11.086Z,14.20
2018-02-03T22:47:39.337Z,14.00
2018-02-03T22:50:11.721Z,14.80
2018-02-03T22:52:39.979Z,15.33
2018-02-03T22:55:16.101Z,12.80
2018-02-03T22:57:44.348Z,12.77
2018-02-03T23:00:19.009Z,13.40
2018-02-03T23:02:52.683Z,14.90
2018-02-03T23:05:20.933Z,12.63
2018-02-03T23:07:49.198Z,12.40
2018-02-03T23:10:19.722Z,12.07
2018-02-03T23:12:47.985Z,12.83
2018-02-03T23:15:16.260Z,13.67
2018-02-03T23:17:44.553Z,14.53
2018-02-03T23:20:12.810Z,13.63
2018-02-03T23:22:41.068Z,12.70
2018-02-03T23:25:09.618Z,12.60
2018-02-03T23:27:37.900Z,11.63
2018-02-03T23:30:13.778Z,11.50
2018-02-03T23:32:42.041Z,12.50
2018-02-03T23:35:16.889Z,12.40
2018-02-03T23:37:44.805Z,11.83
2018-02-03T23:40:13.708Z,11.13
2018-02-03T23:42:42.603Z,12.57
2018-02-03T23:45:11.696Z,12.70
2018-02-03T23:47:39.953Z,12.30
2018-02-03T23:50:10.580Z,12.63
2018-02-03T23:52:38.833Z,12.27
2018-02-03T23:55:15.621Z,13.37
2018-02-03T23:57:43.889Z,13.13
